sensor_id;sensor_type;location;lat;lon;timestamp;temperature;humidity
3330;DHT22;1677;49.576;10.990;2023-04-29T00:00:04;11.90;99.90
3330;DHT22;1677;49.576;10.990;2023-04-29T00:02:34;11.90;99.90
3330;DHT22;1677;49.576;10.990;2023-04-29T00:04:59;11.90;99.90
3330;DHT22;1677;49.576;10.990;2023-04-29T00:07:25;11.80;99.90
3330;DHT22;1677;49.576;10.990;2023-04-29T00:09:51;11.90;99.90
3330;DHT22;1677;49.576;10.990;2023-04-29T00:12:17;11.80;99.90
3330;DHT22;1677;49.576;10.990;2023-04-29T00:14:43;11.80;99.90
3330;DHT22;1677;49.576;10.990;2023-04-29T00:17:08;11.70;99.90
3330;DHT22;1677;49.576;10.990;2023-04-29T00:19:34;11.70;99.90
3330;DHT22;1677;49.576;10.990;2023-04-29T00:22:00;11.70;99.90
3330;DHT22;1677;49.576;10.990;2023-04-29T00:24:26;11.70;99.90
3330;DHT22;1677;49.576;10.990;2023-04-29T00:26:52;11.70;99.90
3330;DHT22;1677;49.576;10.990;2023-04-29T00:29:17;11.80;99.90
3330;DHT22;1677;49.576;10.990;2023-04-29T00:31:43;12.10;99.90
3330;DHT22;1677;49.576;10.990;2023-04-29T00:34:09;12.20;99.90
3330;DHT22;1677;49.576;10.990;2023-04-29T00:36:35;12.20;99.90
3330;DHT22;1677;49.576;10.990;2023-04-29T00:39:01;12.00;99.90
3330;DHT22;1677;49.576;10.990;2023-04-29T00:41:27;12.00;99.90
3330;DHT22;1677;49.576;10.990;2023-04-29T00:43:52;11.90;99.90
3330;DHT22;1677;49.576;10.990;2023-04-29T00:46:18;11.80;99.90
3330;DHT22;1677;49.576;10.990;2023-04-29T00:48:44;11.80;99.90
3330;DHT22;1677;49.576;10.990;2023-04-29T00:51:10;11.80;99.90
3330;DHT22;1677;49.576;10.990;2023-04-29T00:53:36;11.70;99.90
3330;DHT22;1677;49.576;10.990;2023-04-29T00:56:02;11.70;99.90
3330;DHT22;1677;49.576;10.990;2023-04-29T00:58:29;11.80;99.90
3330;DHT22;1677;49.576;10.990;2023-04-29T01:01:03;11.70;99.90
3330;DHT22;1677;49.576;10.990;2023-04-29T01:03:29;11.60;99.90
3330;DHT22;1677;49.576;10.990;2023-04-29T01:08:56;11.50;99.90
3330;DHT22;1677;49.576;10.990;2023-04-29T01:11:32;11.40;99.90
3330;DHT22;1677;49.576;10.990;2023-04-29T01:13:59;11.40;99.90
3330;DHT22;1677;49.576;10.990;2023-04-29T01:16:43;11.40;99.90
3330;DHT22;1677;49.576;10.990;2023-04-29T01:19:24;11.40;99.90
3330;DHT22;1677;49.576;10.990;2023-04-29T01:21:51;11.40;99.90
3330;DHT22;1677;49.576;10.990;2023-04-29T01:24:17;11.30;99.90
3330;DHT22;1677;49.576;10.990;2023-04-29T01:26:48;11.30;99.90
3330;DHT22;1677;49.576;10.990;2023-04-29T01:29:27;11.40;99.90
3330;DHT22;1677;49.576;10.990;2023-04-29T01:32:04;11.30;99.90
3330;DHT22;1677;49.576;10.990;2023-04-29T01:37:32;11.40;99.90
3330;DHT22;1677;49.576;10.990;2023-04-29T01:40:15;11.50;99.90
3330;DHT22;1677;49.576;10.990;2023-04-29T01:42:50;11.40;99.90
3330;DHT22;1677;49.576;10.990;2023-04-29T01:45:20;11.20;99.90
3330;DHT22;1677;49.576;10.990;2023-04-29T01:47:48;11.00;99.90
3330;DHT22;1677;49.576;10.990;2023-04-29T01:50:15;11.00;99.90
3330;DHT22;1677;49.576;10.990;2023-04-29T01:52:40;11.10;99.90
3330;DHT22;1677;49.576;10.990;2023-04-29T01:55:06;11.00;99.90
3330;DHT22;1677;49.576;10.990;2023-04-29T01:57:32;10.90;99.90
3330;DHT22;1677;49.576;10.990;2023-04-29T01:59:58;10.90;99.90
3330;DHT22;1677;49.576;10.990;2023-04-29T02:02:24;11.00;99.90
3330;DHT22;1677;49.576;10.990;2023-04-29T02:04:50;10.90;99.90
3330;DHT22;1677;49.576;10.990;2023-04-29T02:07:16;10.90;99.90
3330;DHT22;1677;49.576;10.990;2023-04-29T02:09:41;10.90;99.90
3330;DHT22;1677;49.576;10.990;2023-04-29T02:12:07;10.90;99.90
3330;DHT22;1677;49.576;10.990;2023-04-29T02:14:32;10.90;99.90
3330;DHT22;1677;49.576;10.990;2023-04-29T02:16:58;10.90;99.90
3330;DHT22;1677;49.576;10.990;2023-04-29T02:19:24;10.90;99.90
3330;DHT22;1677;49.576;10.990;2023-04-29T02:21:50;10.90;99.90
3330;DHT22;1677;49.576;10.990;2023-04-29T02:24:15;10.90;99.90
3330;DHT22;1677;49.576;10.990;2023-04-29T02:26:41;10.90;99.90
3330;DHT22;1677;49.576;10.990;2023-04-29T02:29:06;10.80;99.90
3330;DHT22;1677;49.576;10.990;2023-04-29T02:31:32;10.80;99.90
3330;DHT22;1677;49.576;10.990;2023-04-29T02:33:58;10.80;99.90
3330;DHT22;1677;49.576;10.990;2023-04-29T02:36:25;10.80;99.90
3330;DHT22;1677;49.576;10.990;2023-04-29T02:38:51;10.90;99.90
3330;DHT22;1677;49.576;10.990;2023-04-29T02:41:19;10.70;99.90
3330;DHT22;1677;49.576;10.990;2023-04-29T02:43:45;10.60;99.90
3330;DHT22;1677;49.576;10.990;2023-04-29T02:46:11;10.60;99.90
3330;DHT22;1677;49.576;10.990;2023-04-29T02:48:36;10.60;99.90
3330;DHT22;1677;49.576;10.990;2023-04-29T02:51:02;10.50;99.90
3330;DHT22;1677;49.576;10.990;2023-04-29T02:53:28;10.40;99.90
3330;DHT22;1677;49.576;10.990;2023-04-29T02:55:53;10.40;99.90
3330;DHT22;1677;49.576;10.990;2023-04-29T02:58:20;10.40;99.90
3330;DHT22;1677;49.576;10.990;2023-04-29T03:00:45;10.40;99.90
3330;DHT22;1677;49.576;10.990;2023-04-29T03:03:11;10.40;99.90
3330;DHT22;1677;49.576;10.990;2023-04-29T03:05:36;10.50;99.90
3330;DHT22;1677;49.576;10.990;2023-04-29T03:08:02;10.50;99.90
3330;DHT22;1677;49.576;10.990;2023-04-29T03:10:29;10.40;99.90
3330;DHT22;1677;49.576;10.990;2023-04-29T03:12:54;10.60;99.90
3330;DHT22;1677;49.576;10.990;2023-04-29T03:15:20;10.70;99.90
3330;DHT22;1677;49.576;10.990;2023-04-29T03:17:45;10.60;99.90
3330;DHT22;1677;49.576;10.990;2023-04-29T03:20:11;10.50;99.90
3330;DHT22;1677;49.576;10.990;2023-04-29T03:22:37;10.50;99.90
3330;DHT22;1677;49.576;10.990;2023-04-29T03:25:03;10.50;99.90
3330;DHT22;1677;49.576;10.990;2023-04-29T03:27:29;10.50;99.90
3330;DHT22;1677;49.576;10.990;2023-04-29T03:29:54;10.50;99.90
3330;DHT22;1677;49.576;10.990;2023-04-29T03:32:20;10.50;99.90
3330;DHT22;1677;49.576;10.990;2023-04-29T03:34:45;10.60;99.90
3330;DHT22;1677;49.576;10.990;2023-04-29T03:37:11;10.60;99.90
3330;DHT22;1677;49.576;10.990;2023-04-29T03:39:37;10.60;99.90
3330;DHT22;1677;49.576;10.990;2023-04-29T03:42:03;10.50;99.90
3330;DHT22;1677;49.576;10.990;2023-04-29T03:44:29;10.50;99.90
3330;DHT22;1677;49.576;10.990;2023-04-29T03:46:54;10.50;99.90
3330;DHT22;1677;49.576;10.990;2023-04-29T03:49:20;10.50;99.90
3330;DHT22;1677;49.576;10.990;2023-04-29T03:51:45;10.60;99.90
3330;DHT22;1677;49.576;10.990;2023-04-29T03:54:12;10.50;99.90
3330;DHT22;1677;49.576;10.990;2023-04-29T03:56:37;10.50;99.90
3330;DHT22;1677;49.576;10.990;2023-04-29T03:59:03;10.60;99.90
3330;DHT22;1677;49.576;10.990;2023-04-29T04:01:29;10.80;99.90
3330;DHT22;1677;49.576;10.990;2023-04-29T04:03:54;10.80;99.90
3330;DHT22;1677;49.576;10.990;2023-04-29T04:06:20;10.70;99.90
3330;DHT22;1677;49.576;10.990;2023-04-29T04:08:46;10.60;99.90
3330;DHT22;1677;49.576;10.990;2023-04-29T04:11:12;10.60;99.90
3330;DHT22;1677;49.576;10.990;2023-04-29T04:13:40;10.60;99.90
3330;DHT22;1677;49.576;10.990;2023-04-29T04:16:10;10.60;99.90
3330;DHT22;1677;49.576;10.990;2023-04-29T04:18:36;10.60;99.90
3330;DHT22;1677;49.576;10.990;2023-04-29T04:21:10;10.70;99.90
3330;DHT22;1677;49.576;10.990;2023-04-29T04:23:36;10.70;99.90
3330;DHT22;1677;49.576;10.990;2023-04-29T04:26:04;10.70;99.90
3330;DHT22;1677;49.576;10.990;2023-04-29T04:28:30;10.70;99.90
3330;DHT22;1677;49.576;10.990;2023-04-29T04:30:56;10.70;99.90
3330;DHT22;1677;49.576;10.990;2023-04-29T04:33:21;10.70;99.90
3330;DHT22;1677;49.576;10.990;2023-04-29T04:35:47;10.70;99.90
3330;DHT22;1677;49.576;10.990;2023-04-29T04:38:13;10.90;99.90
3330;DHT22;1677;49.576;10.990;2023-04-29T04:40:43;10.90;99.90
3330;DHT22;1677;49.576;10.990;2023-04-29T04:43:08;10.80;99.90
3330;DHT22;1677;49.576;10.990;2023-04-29T04:45:34;10.90;99.90
3330;DHT22;1677;49.576;10.990;2023-04-29T04:48:01;10.90;99.90
3330;DHT22;1677;49.576;10.990;2023-04-29T04:50:27;10.90;99.90
3330;DHT22;1677;49.576;10.990;2023-04-29T04:52:57;11.00;99.90
3330;DHT22;1677;49.576;10.990;2023-04-29T04:55:23;10.90;99.90
3330;DHT22;1677;49.576;10.990;2023-04-29T04:57:48;11.10;99.90
3330;DHT22;1677;49.576;10.990;2023-04-29T05:00:14;11.00;99.90
3330;DHT22;1677;49.576;10.990;2023-04-29T05:02:41;11.00;99.90
3330;DHT22;1677;49.576;10.990;2023-04-29T05:05:07;11.10;99.90
3330;DHT22;1677;49.576;10.990;2023-04-29T05:07:33;11.10;99.90
3330;DHT22;1677;49.576;10.990;2023-04-29T05:10:02;11.10;99.90
3330;DHT22;1677;49.576;10.990;2023-04-29T05:12:28;11.00;99.90
3330;DHT22;1677;49.576;10.990;2023-04-29T05:14:57;11.10;99.90
3330;DHT22;1677;49.576;10.990;2023-04-29T05:17:23;11.00;99.90
3330;DHT22;1677;49.576;10.990;2023-04-29T05:19:48;11.00;99.90
3330;DHT22;1677;49.576;10.990;2023-04-29T05:22:14;11.10;99.90
3330;DHT22;1677;49.576;10.990;2023-04-29T05:24:39;11.20;99.90
3330;DHT22;1677;49.576;10.990;2023-04-29T05:27:05;11.30;99.90
3330;DHT22;1677;49.576;10.990;2023-04-29T05:29:30;11.40;99.90
3330;DHT22;1677;49.576;10.990;2023-04-29T05:31:56;11.40;99.90
3330;DHT22;1677;49.576;10.990;2023-04-29T05:34:22;11.50;99.90
3330;DHT22;1677;49.576;10.990;2023-04-29T05:36:48;11.70;99.90
3330;DHT22;1677;49.576;10.990;2023-04-29T05:39:13;11.70;99.90
3330;DHT22;1677;49.576;10.990;2023-04-29T05:41:39;11.80;99.90
3330;DHT22;1677;49.576;10.990;2023-04-29T05:44:05;11.80;99.90
3330;DHT22;1677;49.576;10.990;2023-04-29T05:46:30;11.90;99.90
3330;DHT22;1677;49.576;10.990;2023-04-29T05:48:56;11.90;99.90
3330;DHT22;1677;49.576;10.990;2023-04-29T05:51:21;12.00;99.90
3330;DHT22;1677;49.576;10.990;2023-04-29T05:53:47;11.90;99.90
3330;DHT22;1677;49.576;10.990;2023-04-29T05:56:13;11.80;99.90
3330;DHT22;1677;49.576;10.990;2023-04-29T05:58:38;11.60;99.90
3330;DHT22;1677;49.576;10.990;2023-04-29T06:01:04;11.50;99.90
3330;DHT22;1677;49.576;10.990;2023-04-29T06:03:29;11.60;99.90
3330;DHT22;1677;49.576;10.990;2023-04-29T06:05:55;11.70;99.90
3330;DHT22;1677;49.576;10.990;2023-04-29T06:08:21;11.80;99.90
3330;DHT22;1677;49.576;10.990;2023-04-29T06:10:46;11.80;99.90
3330;DHT22;1677;49.576;10.990;2023-04-29T06:13:12;11.90;99.90
3330;DHT22;1677;49.576;10.990;2023-04-29T06:15:38;12.10;99.90
3330;DHT22;1677;49.576;10.990;2023-04-29T06:18:03;12.20;99.90
3330;DHT22;1677;49.576;10.990;2023-04-29T06:20:29;12.30;99.90
3330;DHT22;1677;49.576;10.990;2023-04-29T06:22:54;12.20;99.90
3330;DHT22;1677;49.576;10.990;2023-04-29T06:25:20;12.30;99.90
3330;DHT22;1677;49.576;10.990;2023-04-29T06:27:46;12.40;99.90
3330;DHT22;1677;49.576;10.990;2023-04-29T06:30:13;12.50;99.90
3330;DHT22;1677;49.576;10.990;2023-04-29T06:32:39;12.60;99.90
3330;DHT22;1677;49.576;10.990;2023-04-29T06:35:05;12.70;99.90
3330;DHT22;1677;49.576;10.990;2023-04-29T06:37:31;12.80;99.90
3330;DHT22;1677;49.576;10.990;2023-04-29T06:39:56;12.90;99.90
3330;DHT22;1677;49.576;10.990;2023-04-29T06:42:22;13.10;99.90
3330;DHT22;1677;49.576;10.990;2023-04-29T06:44:47;13.30;99.90
3330;DHT22;1677;49.576;10.990;2023-04-29T06:47:13;13.50;99.90
3330;DHT22;1677;49.576;10.990;2023-04-29T06:49:39;13.60;99.90
3330;DHT22;1677;49.576;10.990;2023-04-29T06:52:05;13.80;99.90
3330;DHT22;1677;49.576;10.990;2023-04-29T06:54:31;13.70;99.90
3330;DHT22;1677;49.576;10.990;2023-04-29T06:56:57;14.10;99.90
3330;DHT22;1677;49.576;10.990;2023-04-29T06:59:22;14.30;99.90
3330;DHT22;1677;49.576;10.990;2023-04-29T07:01:48;14.20;99.90
3330;DHT22;1677;49.576;10.990;2023-04-29T07:04:13;14.50;99.90
3330;DHT22;1677;49.576;10.990;2023-04-29T07:06:39;14.50;99.90
3330;DHT22;1677;49.576;10.990;2023-04-29T07:09:05;14.50;99.90
3330;DHT22;1677;49.576;10.990;2023-04-29T07:11:30;14.50;99.90
3330;DHT22;1677;49.576;10.990;2023-04-29T07:13:56;14.60;99.90
3330;DHT22;1677;49.576;10.990;2023-04-29T07:16:21;14.80;99.90
3330;DHT22;1677;49.576;10.990;2023-04-29T07:18:50;14.80;99.90
3330;DHT22;1677;49.576;10.990;2023-04-29T07:21:16;14.90;99.90
3330;DHT22;1677;49.576;10.990;2023-04-29T07:23:42;14.80;99.90
3330;DHT22;1677;49.576;10.990;2023-04-29T07:26:14;14.80;99.90
3330;DHT22;1677;49.576;10.990;2023-04-29T07:28:40;14.80;99.90
3330;DHT22;1677;49.576;10.990;2023-04-29T07:31:06;14.80;99.90
3330;DHT22;1677;49.576;10.990;2023-04-29T07:33:33;14.90;99.90
3330;DHT22;1677;49.576;10.990;2023-04-29T07:35:59;15.00;99.90
3330;DHT22;1677;49.576;10.990;2023-04-29T07:38:24;15.20;99.90
3330;DHT22;1677;49.576;10.990;2023-04-29T07:40:50;15.30;99.90
3330;DHT22;1677;49.576;10.990;2023-04-29T07:43:16;15.40;99.90
3330;DHT22;1677;49.576;10.990;2023-04-29T07:45:42;15.40;99.90
3330;DHT22;1677;49.576;10.990;2023-04-29T07:48:07;15.50;99.90
3330;DHT22;1677;49.576;10.990;2023-04-29T07:50:34;15.60;99.90
3330;DHT22;1677;49.576;10.990;2023-04-29T07:53:01;15.60;99.90
3330;DHT22;1677;49.576;10.990;2023-04-29T07:55:27;15.70;99.90
3330;DHT22;1677;49.576;10.990;2023-04-29T07:57:54;15.80;99.90
3330;DHT22;1677;49.576;10.990;2023-04-29T08:00:21;15.80;99.90
3330;DHT22;1677;49.576;10.990;2023-04-29T08:02:50;16.00;99.90
3330;DHT22;1677;49.576;10.990;2023-04-29T08:05:16;16.20;99.90
3330;DHT22;1677;49.576;10.990;2023-04-29T08:07:42;16.40;99.90
3330;DHT22;1677;49.576;10.990;2023-04-29T08:10:08;16.50;99.90
3330;DHT22;1677;49.576;10.990;2023-04-29T08:12:33;16.50;99.90
3330;DHT22;1677;49.576;10.990;2023-04-29T08:14:59;16.50;99.90
3330;DHT22;1677;49.576;10.990;2023-04-29T08:17:25;16.50;99.90
3330;DHT22;1677;49.576;10.990;2023-04-29T08:19:50;16.20;99.90
3330;DHT22;1677;49.576;10.990;2023-04-29T08:22:16;16.20;99.90
3330;DHT22;1677;49.576;10.990;2023-04-29T08:24:41;16.10;99.90
3330;DHT22;1677;49.576;10.990;2023-04-29T08:27:07;16.00;99.90
3330;DHT22;1677;49.576;10.990;2023-04-29T08:29:33;15.90;99.90
3330;DHT22;1677;49.576;10.990;2023-04-29T08:31:59;16.00;99.90
3330;DHT22;1677;49.576;10.990;2023-04-29T08:34:25;16.00;99.90
3330;DHT22;1677;49.576;10.990;2023-04-29T08:36:51;16.20;99.90
3330;DHT22;1677;49.576;10.990;2023-04-29T08:39:16;16.20;99.90
3330;DHT22;1677;49.576;10.990;2023-04-29T08:41:42;16.10;99.90
3330;DHT22;1677;49.576;10.990;2023-04-29T08:44:14;16.10;99.90
3330;DHT22;1677;49.576;10.990;2023-04-29T08:46:39;16.10;99.90
3330;DHT22;1677;49.576;10.990;2023-04-29T08:49:06;16.30;99.90
3330;DHT22;1677;49.576;10.990;2023-04-29T08:51:32;16.30;99.90
3330;DHT22;1677;49.576;10.990;2023-04-29T08:53:59;16.10;99.90
3330;DHT22;1677;49.576;10.990;2023-04-29T08:56:24;16.10;99.90
3330;DHT22;1677;49.576;10.990;2023-04-29T08:58:51;16.00;99.90
3330;DHT22;1677;49.576;10.990;2023-04-29T09:01:20;15.70;99.90
3330;DHT22;1677;49.576;10.990;2023-04-29T09:03:48;15.40;99.90
3330;DHT22;1677;49.576;10.990;2023-04-29T09:06:14;15.30;99.90
3330;DHT22;1677;49.576;10.990;2023-04-29T09:08:40;15.20;99.90
3330;DHT22;1677;49.576;10.990;2023-04-29T09:11:09;15.30;99.90
3330;DHT22;1677;49.576;10.990;2023-04-29T09:13:36;15.30;99.90
3330;DHT22;1677;49.576;10.990;2023-04-29T09:16:02;15.50;99.90
3330;DHT22;1677;49.576;10.990;2023-04-29T09:18:48;15.90;99.90
3330;DHT22;1677;49.576;10.990;2023-04-29T09:23:41;16.80;99.90
3330;DHT22;1677;49.576;10.990;2023-04-29T09:26:06;17.00;99.90
3330;DHT22;1677;49.576;10.990;2023-04-29T09:28:32;17.50;99.90
3330;DHT22;1677;49.576;10.990;2023-04-29T09:30:58;18.20;99.90
3330;DHT22;1677;49.576;10.990;2023-04-29T09:33:24;18.70;99.90
3330;DHT22;1677;49.576;10.990;2023-04-29T09:35:53;19.20;99.90
3330;DHT22;1677;49.576;10.990;2023-04-29T09:38:18;19.40;99.90
3330;DHT22;1677;49.576;10.990;2023-04-29T09:40:45;19.50;99.90
3330;DHT22;1677;49.576;10.990;2023-04-29T09:43:15;19.60;99.90
3330;DHT22;1677;49.576;10.990;2023-04-29T09:45:44;19.20;99.90
3330;DHT22;1677;49.576;10.990;2023-04-29T09:48:10;19.20;99.90
3330;DHT22;1677;49.576;10.990;2023-04-29T09:50:41;19.30;99.90
3330;DHT22;1677;49.576;10.990;2023-04-29T09:53:10;19.50;99.90
3330;DHT22;1677;49.576;10.990;2023-04-29T09:55:37;19.40;99.90
3330;DHT22;1677;49.576;10.990;2023-04-29T10:00:58;18.40;99.90
3330;DHT22;1677;49.576;10.990;2023-04-29T10:03:27;18.00;99.90
3330;DHT22;1677;49.576;10.990;2023-04-29T10:05:56;17.90;99.90
3330;DHT22;1677;49.576;10.990;2023-04-29T10:08:22;17.90;99.90
3330;DHT22;1677;49.576;10.990;2023-04-29T10:10:48;18.10;99.90
3330;DHT22;1677;49.576;10.990;2023-04-29T10:13:25;18.20;99.90
3330;DHT22;1677;49.576;10.990;2023-04-29T10:16:22;18.30;99.90
3330;DHT22;1677;49.576;10.990;2023-04-29T10:18:54;18.30;99.90
3330;DHT22;1677;49.576;10.990;2023-04-29T10:21:29;18.60;99.90
3330;DHT22;1677;49.576;10.990;2023-04-29T10:23:57;18.80;99.90
3330;DHT22;1677;49.576;10.990;2023-04-29T10:26:27;18.80;99.90
3330;DHT22;1677;49.576;10.990;2023-04-29T10:28:55;18.80;99.90
3330;DHT22;1677;49.576;10.990;2023-04-29T10:31:21;18.60;99.90
3330;DHT22;1677;49.576;10.990;2023-04-29T10:33:50;18.60;99.90
3330;DHT22;1677;49.576;10.990;2023-04-29T10:36:20;18.70;99.90
3330;DHT22;1677;49.576;10.990;2023-04-29T10:38:49;18.60;99.90
3330;DHT22;1677;49.576;10.990;2023-04-29T10:41:21;18.30;99.90
3330;DHT22;1677;49.576;10.990;2023-04-29T10:43:51;18.10;99.90
3330;DHT22;1677;49.576;10.990;2023-04-29T10:46:22;17.90;99.90
3330;DHT22;1677;49.576;10.990;2023-04-29T10:49:02;17.70;99.90
3330;DHT22;1677;49.576;10.990;2023-04-29T10:51:33;17.70;99.90
3330;DHT22;1677;49.576;10.990;2023-04-29T10:54:03;17.70;99.90
3330;DHT22;1677;49.576;10.990;2023-04-29T10:56:37;17.50;99.90
3330;DHT22;1677;49.576;10.990;2023-04-29T10:59:03;17.50;99.90
3330;DHT22;1677;49.576;10.990;2023-04-29T11:01:49;17.40;99.90
3330;DHT22;1677;49.576;10.990;2023-04-29T11:04:17;17.50;99.90
3330;DHT22;1677;49.576;10.990;2023-04-29T11:06:46;17.70;99.90
3330;DHT22;1677;49.576;10.990;2023-04-29T11:09:25;17.70;99.90
3330;DHT22;1677;49.576;10.990;2023-04-29T11:12:04;17.60;99.90
3330;DHT22;1677;49.576;10.990;2023-04-29T11:14:42;17.40;99.90
3330;DHT22;1677;49.576;10.990;2023-04-29T11:17:14;17.40;99.90
3330;DHT22;1677;49.576;10.990;2023-04-29T11:19:45;17.30;99.90
3330;DHT22;1677;49.576;10.990;2023-04-29T11:27:19;17.90;99.90
3330;DHT22;1677;49.576;10.990;2023-04-29T11:29:48;17.90;99.90
3330;DHT22;1677;49.576;10.990;2023-04-29T11:32:14;17.80;99.90
3330;DHT22;1677;49.576;10.990;2023-04-29T11:34:40;17.70;99.90
3330;DHT22;1677;49.576;10.990;2023-04-29T11:37:05;17.50;99.90
3330;DHT22;1677;49.576;10.990;2023-04-29T11:39:34;17.30;99.90
3330;DHT22;1677;49.576;10.990;2023-04-29T11:42:06;17.10;99.90
3330;DHT22;1677;49.576;10.990;2023-04-29T11:44:33;17.00;99.90
3330;DHT22;1677;49.576;10.990;2023-04-29T11:47:04;17.00;99.90
3330;DHT22;1677;49.576;10.990;2023-04-29T11:49:34;17.00;99.90
3330;DHT22;1677;49.576;10.990;2023-04-29T11:52:00;17.10;99.90
3330;DHT22;1677;49.576;10.990;2023-04-29T11:54:26;17.20;99.90
3330;DHT22;1677;49.576;10.990;2023-04-29T11:56:53;17.20;99.90
3330;DHT22;1677;49.576;10.990;2023-04-29T11:59:20;17.10;99.90
3330;DHT22;1677;49.576;10.990;2023-04-29T12:01:47;17.00;99.90
3330;DHT22;1677;49.576;10.990;2023-04-29T12:04:12;16.90;99.90
3330;DHT22;1677;49.576;10.990;2023-04-29T12:06:38;16.80;99.90
3330;DHT22;1677;49.576;10.990;2023-04-29T12:09:03;16.80;99.90
3330;DHT22;1677;49.576;10.990;2023-04-29T12:11:29;16.90;99.90
3330;DHT22;1677;49.576;10.990;2023-04-29T12:13:56;16.90;99.90
3330;DHT22;1677;49.576;10.990;2023-04-29T12:16:21;17.00;99.90
3330;DHT22;1677;49.576;10.990;2023-04-29T12:18:49;17.00;99.90
3330;DHT22;1677;49.576;10.990;2023-04-29T12:21:15;16.80;99.90
3330;DHT22;1677;49.576;10.990;2023-04-29T12:23:41;16.80;99.90
3330;DHT22;1677;49.576;10.990;2023-04-29T12:26:07;16.80;99.90
3330;DHT22;1677;49.576;10.990;2023-04-29T12:28:33;16.80;99.90
3330;DHT22;1677;49.576;10.990;2023-04-29T12:30:59;16.80;99.90
3330;DHT22;1677;49.576;10.990;2023-04-29T12:33:27;16.90;99.90
3330;DHT22;1677;49.576;10.990;2023-04-29T12:35:55;17.00;99.90
3330;DHT22;1677;49.576;10.990;2023-04-29T12:38:26;17.00;99.90
3330;DHT22;1677;49.576;10.990;2023-04-29T12:40:58;17.10;99.90
3330;DHT22;1677;49.576;10.990;2023-04-29T12:43:27;17.00;99.90
3330;DHT22;1677;49.576;10.990;2023-04-29T12:46:04;17.10;99.90
3330;DHT22;1677;49.576;10.990;2023-04-29T12:48:31;17.20;99.90
3330;DHT22;1677;49.576;10.990;2023-04-29T12:50:56;17.20;99.90
3330;DHT22;1677;49.576;10.990;2023-04-29T12:53:30;17.20;99.90
3330;DHT22;1677;49.576;10.990;2023-04-29T12:55:56;17.30;99.90
3330;DHT22;1677;49.576;10.990;2023-04-29T12:58:22;17.10;99.90
3330;DHT22;1677;49.576;10.990;2023-04-29T13:00:48;16.90;99.90
3330;DHT22;1677;49.576;10.990;2023-04-29T13:03:14;16.80;99.90
3330;DHT22;1677;49.576;10.990;2023-04-29T13:05:39;16.90;99.90
3330;DHT22;1677;49.576;10.990;2023-04-29T13:08:05;16.90;99.90
3330;DHT22;1677;49.576;10.990;2023-04-29T13:10:31;16.90;99.90
3330;DHT22;1677;49.576;10.990;2023-04-29T13:12:58;17.10;99.90
3330;DHT22;1677;49.576;10.990;2023-04-29T13:15:24;17.30;99.90
3330;DHT22;1677;49.576;10.990;2023-04-29T13:17:49;17.50;99.90
3330;DHT22;1677;49.576;10.990;2023-04-29T13:20:16;17.80;99.90
3330;DHT22;1677;49.576;10.990;2023-04-29T13:22:42;18.10;99.90
3330;DHT22;1677;49.576;10.990;2023-04-29T13:25:09;18.30;99.90
3330;DHT22;1677;49.576;10.990;2023-04-29T13:27:34;18.40;99.90
3330;DHT22;1677;49.576;10.990;2023-04-29T13:30:00;18.50;99.90
3330;DHT22;1677;49.576;10.990;2023-04-29T13:32:26;18.40;99.90
3330;DHT22;1677;49.576;10.990;2023-04-29T13:34:52;18.20;99.90
3330;DHT22;1677;49.576;10.990;2023-04-29T13:37:18;17.90;99.90
3330;DHT22;1677;49.576;10.990;2023-04-29T13:39:46;17.60;99.90
3330;DHT22;1677;49.576;10.990;2023-04-29T13:42:12;17.30;99.90
3330;DHT22;1677;49.576;10.990;2023-04-29T13:44:38;17.20;99.90
3330;DHT22;1677;49.576;10.990;2023-04-29T13:47:09;17.00;99.90
3330;DHT22;1677;49.576;10.990;2023-04-29T13:49:35;16.80;99.90
3330;DHT22;1677;49.576;10.990;2023-04-29T13:52:00;16.70;99.90
3330;DHT22;1677;49.576;10.990;2023-04-29T13:54:26;16.60;99.90
3330;DHT22;1677;49.576;10.990;2023-04-29T13:56:51;16.60;99.90
3330;DHT22;1677;49.576;10.990;2023-04-29T13:59:17;16.50;99.90
3330;DHT22;1677;49.576;10.990;2023-04-29T14:01:42;16.40;99.90
3330;DHT22;1677;49.576;10.990;2023-04-29T14:04:09;16.40;99.90
3330;DHT22;1677;49.576;10.990;2023-04-29T14:06:34;16.50;99.90
3330;DHT22;1677;49.576;10.990;2023-04-29T14:09:00;16.50;99.90
3330;DHT22;1677;49.576;10.990;2023-04-29T14:11:26;16.60;99.90
3330;DHT22;1677;49.576;10.990;2023-04-29T14:13:51;16.80;99.90
3330;DHT22;1677;49.576;10.990;2023-04-29T14:16:17;16.90;99.90
3330;DHT22;1677;49.576;10.990;2023-04-29T14:18:43;16.90;99.90
3330;DHT22;1677;49.576;10.990;2023-04-29T14:21:09;16.80;99.90
3330;DHT22;1677;49.576;10.990;2023-04-29T14:23:35;16.80;99.90
3330;DHT22;1677;49.576;10.990;2023-04-29T14:26:01;16.60;99.90
3330;DHT22;1677;49.576;10.990;2023-04-29T14:28:26;16.40;99.90
3330;DHT22;1677;49.576;10.990;2023-04-29T14:30:52;16.20;99.90
3330;DHT22;1677;49.576;10.990;2023-04-29T14:33:17;16.10;99.90
3330;DHT22;1677;49.576;10.990;2023-04-29T14:35:43;15.90;99.90
3330;DHT22;1677;49.576;10.990;2023-04-29T14:38:08;15.70;99.90
3330;DHT22;1677;49.576;10.990;2023-04-29T14:40:34;15.50;99.90
3330;DHT22;1677;49.576;10.990;2023-04-29T14:42:59;15.40;99.90
3330;DHT22;1677;49.576;10.990;2023-04-29T14:45:26;15.30;99.90
3330;DHT22;1677;49.576;10.990;2023-04-29T14:47:52;15.30;99.90
3330;DHT22;1677;49.576;10.990;2023-04-29T14:50:18;15.40;99.90
3330;DHT22;1677;49.576;10.990;2023-04-29T14:52:43;15.50;99.90
3330;DHT22;1677;49.576;10.990;2023-04-29T14:55:09;15.80;99.90
3330;DHT22;1677;49.576;10.990;2023-04-29T14:57:34;15.90;99.90
3330;DHT22;1677;49.576;10.990;2023-04-29T15:00:00;16.00;99.90
3330;DHT22;1677;49.576;10.990;2023-04-29T15:02:25;15.90;99.90
3330;DHT22;1677;49.576;10.990;2023-04-29T15:04:51;15.90;99.90
3330;DHT22;1677;49.576;10.990;2023-04-29T15:07:17;15.90;99.90
3330;DHT22;1677;49.576;10.990;2023-04-29T15:09:43;15.80;99.90
3330;DHT22;1677;49.576;10.990;2023-04-29T15:12:08;15.80;99.90
3330;DHT22;1677;49.576;10.990;2023-04-29T15:14:34;15.90;99.90
3330;DHT22;1677;49.576;10.990;2023-04-29T15:17:00;15.80;99.90
3330;DHT22;1677;49.576;10.990;2023-04-29T15:19:25;15.90;99.90
3330;DHT22;1677;49.576;10.990;2023-04-29T15:21:51;15.80;99.90
3330;DHT22;1677;49.576;10.990;2023-04-29T15:24:18;15.60;99.90
3330;DHT22;1677;49.576;10.990;2023-04-29T15:26:44;15.50;99.90
3330;DHT22;1677;49.576;10.990;2023-04-29T15:29:10;15.50;99.90
3330;DHT22;1677;49.576;10.990;2023-04-29T15:31:36;15.50;99.90
3330;DHT22;1677;49.576;10.990;2023-04-29T15:34:02;15.50;99.90
3330;DHT22;1677;49.576;10.990;2023-04-29T15:36:29;15.70;99.90
3330;DHT22;1677;49.576;10.990;2023-04-29T15:38:56;15.60;99.90
3330;DHT22;1677;49.576;10.990;2023-04-29T15:41:22;15.70;99.90
3330;DHT22;1677;49.576;10.990;2023-04-29T15:43:50;15.80;99.90
3330;DHT22;1677;49.576;10.990;2023-04-29T15:46:16;15.80;99.90
3330;DHT22;1677;49.576;10.990;2023-04-29T15:48:42;15.60;99.90
3330;DHT22;1677;49.576;10.990;2023-04-29T15:51:07;15.70;99.90
3330;DHT22;1677;49.576;10.990;2023-04-29T15:53:34;15.50;99.90
3330;DHT22;1677;49.576;10.990;2023-04-29T15:56:00;15.30;99.90
3330;DHT22;1677;49.576;10.990;2023-04-29T15:58:26;15.20;99.90